Ty Lotus — DSNU7 — position and weather

sailwx.info

Track history (hours):
 
Tides and Currents Weather Stations Pressure Air Temp Water Temp Dewpoint Dewpoint Depression Visibility Wind Speed Wind Dir Waves Ship Positions

Ty Lotus

Last reported at 2014-Nov-19 18:32 UTC. Time now 2014-Nov-23 06:04 UTC.
Position N 34°38' E 135°00'.

Length 82 m; draft 4.6 m.

Type: Cargo ship. MMSI: 440324000.

Date/timePositionNaut miles runAvg speedWind from/ knotsBaromVisibWave heightAir tempDewpointWater temp
2014-Nov-19 18:32N 34°38' E 135°00'8 7.7
2014-Nov-19 17:33N 34°31' E 135°04'1110.4
2014-Nov-19 16:32N 34°20' E 135°01'9 9.3
2014-Nov-19 15:33N 34°11' E 134°59'1010.1
2014-Nov-19 14:32N 34°01' E 134°59'246 8.8
2014-Nov-18 10:33N 35°12' E 139°46'1110.9
2014-Nov-18 09:33N 35°23' E 139°42'1111.2
2014-Nov-18 08:33N 35°31' E 139°52'3 0.1
2014-Nov-16 17:22N 35°33' E 139°55'810.1
2014-Nov-16 16:33N 35°26' E 139°49'9 9.1
2014-Nov-16 15:33N 35°18' E 139°45'247 8.8
2014-Nov-15 11:33N 34°01' E 134°59'1111.1
2014-Nov-15 10:31N 34°12' E 134°59'1210.5
2014-Nov-15 09:21N 34°24' E 135°04'810.6
2014-Nov-15 08:33N 34°28' E 135°13'9 9.0
2014-Nov-15 07:33N 34°31' E 135°23'0 0.1
2014-Nov-15 03:31N 34°31' E 135°23'8 8.6
2014-Nov-15 02:33N 34°34' E 135°14'1111.1
2014-Nov-15 01:33N 34°37' E 135°01'  
Track history (hours):
 
Tides and Currents Weather Stations Pressure Air Temp Water Temp Dewpoint Dewpoint Depression Visibility Wind Speed Wind Dir Waves Ship Positions

Ty Lotus

Last reported at 2014-Nov-19 18:32 UTC. Time now 2014-Nov-23 06:04 UTC.
Position N 34°38' E 135°00'.

Length 82 m; draft 4.6 m.

Type: Cargo ship. MMSI: 440324000.

Date/timePositionNaut miles runAvg speedWind from/ knotsBaromVisibWave heightAir tempDewpointWater temp
2014-Nov-19 18:32N 34°38' E 135°00'8 7.7
2014-Nov-19 17:33N 34°31' E 135°04'1110.4
2014-Nov-19 16:32N 34°20' E 135°01'9 9.3
2014-Nov-19 15:33N 34°11' E 134°59'1010.1
2014-Nov-19 14:32N 34°01' E 134°59'246 8.8
2014-Nov-18 10:33N 35°12' E 139°46'1110.9
2014-Nov-18 09:33N 35°23' E 139°42'1111.2
2014-Nov-18 08:33N 35°31' E 139°52'3 0.1
2014-Nov-16 17:22N 35°33' E 139°55'810.1
2014-Nov-16 16:33N 35°26' E 139°49'9 9.1
2014-Nov-16 15:33N 35°18' E 139°45'247 8.8
2014-Nov-15 11:33N 34°01' E 134°59'1111.1
2014-Nov-15 10:31N 34°12' E 134°59'1210.5
2014-Nov-15 09:21N 34°24' E 135°04'810.6
2014-Nov-15 08:33N 34°28' E 135°13'9 9.0
2014-Nov-15 07:33N 34°31' E 135°23'0 0.1
2014-Nov-15 03:31N 34°31' E 135°23'8 8.6
2014-Nov-15 02:33N 34°34' E 135°14'1111.1
2014-Nov-15 01:33N 34°37' E 135°01'  

Dump ship's entire track history